sensor_id;sensor_type;location;lat;lon;timestamp;P1;durP1;ratioP1;P2;durP2;ratioP2
48613;SDS011;34408;51.426;5.444;2022-09-01T00:01:46;4.90;;;1.05;;
48613;SDS011;34408;51.426;5.444;2022-09-01T00:04:17;1.60;;;1.13;;
48613;SDS011;34408;51.426;5.444;2022-09-01T00:06:46;2.50;;;1.08;;
48613;SDS011;34408;51.426;5.444;2022-09-01T00:09:16;4.07;;;1.17;;
48613;SDS011;34408;51.426;5.444;2022-09-01T00:11:48;3.13;;;1.05;;
48613;SDS011;34408;51.426;5.444;2022-09-01T00:14:18;1.88;;;1.27;;
48613;SDS011;34408;51.426;5.444;2022-09-01T00:16:56;2.72;;;1.17;;
48613;SDS011;34408;51.426;5.444;2022-09-01T00:19:26;4.03;;;1.33;;
48613;SDS011;34408;51.426;5.444;2022-09-01T00:21:54;3.35;;;1.17;;
48613;SDS011;34408;51.426;5.444;2022-09-01T00:24:23;1.50;;;1.10;;
48613;SDS011;34408;51.426;5.444;2022-09-01T00:26:52;2.67;;;1.02;;
48613;SDS011;34408;51.426;5.444;2022-09-01T00:29:22;5.10;;;1.05;;
48613;SDS011;34408;51.426;5.444;2022-09-01T00:31:50;9.10;;;1.58;;
48613;SDS011;34408;51.426;5.444;2022-09-01T00:34:18;5.07;;;1.30;;
48613;SDS011;34408;51.426;5.444;2022-09-01T00:36:48;2.60;;;1.23;;
48613;SDS011;34408;51.426;5.444;2022-09-01T00:39:15;2.67;;;1.60;;
48613;SDS011;34408;51.426;5.444;2022-09-01T00:41:43;1.77;;;0.98;;
48613;SDS011;34408;51.426;5.444;2022-09-01T00:44:13;2.95;;;1.08;;
48613;SDS011;34408;51.426;5.444;2022-09-01T00:46:44;1.98;;;1.15;;
48613;SDS011;34408;51.426;5.444;2022-09-01T00:49:22;2.30;;;1.40;;
48613;SDS011;34408;51.426;5.444;2022-09-01T00:52:02;6.18;;;1.13;;
48613;SDS011;34408;51.426;5.444;2022-09-01T00:57:03;2.97;;;1.00;;
48613;SDS011;34408;51.426;5.444;2022-09-01T00:59:32;1.52;;;0.90;;
48613;SDS011;34408;51.426;5.444;2022-09-01T01:02:02;1.30;;;1.05;;
48613;SDS011;34408;51.426;5.444;2022-09-01T01:04:30;2.83;;;1.10;;
48613;SDS011;34408;51.426;5.444;2022-09-01T01:06:59;1.38;;;1.10;;
48613;SDS011;34408;51.426;5.444;2022-09-01T01:09:30;3.58;;;1.10;;
48613;SDS011;34408;51.426;5.444;2022-09-01T01:12:02;4.25;;;1.10;;
48613;SDS011;34408;51.426;5.444;2022-09-01T01:14:33;2.35;;;1.17;;
48613;SDS011;34408;51.426;5.444;2022-09-01T01:17:05;2.17;;;1.40;;
48613;SDS011;34408;51.426;5.444;2022-09-01T01:19:36;2.42;;;1.30;;
48613;SDS011;34408;51.426;5.444;2022-09-01T01:22:28;6.00;;;1.30;;
48613;SDS011;34408;51.426;5.444;2022-09-01T01:25:25;3.92;;;1.30;;
48613;SDS011;34408;51.426;5.444;2022-09-01T01:28:01;4.45;;;1.08;;
48613;SDS011;34408;51.426;5.444;2022-09-01T01:30:31;3.15;;;1.27;;
48613;SDS011;34408;51.426;5.444;2022-09-01T01:33:02;3.20;;;1.08;;
48613;SDS011;34408;51.426;5.444;2022-09-01T01:35:31;6.57;;;1.30;;
48613;SDS011;34408;51.426;5.444;2022-09-01T01:38:00;1.45;;;1.08;;
48613;SDS011;34408;51.426;5.444;2022-09-01T01:40:34;6.28;;;1.13;;
48613;SDS011;34408;51.426;5.444;2022-09-01T01:43:03;2.92;;;1.33;;
48613;SDS011;34408;51.426;5.444;2022-09-01T01:45:31;1.65;;;1.33;;
48613;SDS011;34408;51.426;5.444;2022-09-01T01:47:59;1.58;;;1.20;;
48613;SDS011;34408;51.426;5.444;2022-09-01T01:50:34;2.08;;;1.17;;
48613;SDS011;34408;51.426;5.444;2022-09-01T01:53:04;3.30;;;1.20;;
48613;SDS011;34408;51.426;5.444;2022-09-01T01:55:38;2.83;;;1.30;;
48613;SDS011;34408;51.426;5.444;2022-09-01T01:58:09;1.67;;;1.02;;
48613;SDS011;34408;51.426;5.444;2022-09-01T02:00:37;3.78;;;1.48;;
48613;SDS011;34408;51.426;5.444;2022-09-01T02:03:08;2.65;;;1.40;;
48613;SDS011;34408;51.426;5.444;2022-09-01T02:05:38;4.53;;;1.30;;
48613;SDS011;34408;51.426;5.444;2022-09-01T02:08:07;1.88;;;0.85;;
48613;SDS011;34408;51.426;5.444;2022-09-01T02:10:40;4.00;;;1.67;;
48613;SDS011;34408;51.426;5.444;2022-09-01T02:13:11;4.15;;;1.25;;
48613;SDS011;34408;51.426;5.444;2022-09-01T02:15:43;2.03;;;1.20;;
48613;SDS011;34408;51.426;5.444;2022-09-01T02:18:21;3.28;;;1.17;;
48613;SDS011;34408;51.426;5.444;2022-09-01T02:20:53;1.10;;;1.00;;
48613;SDS011;34408;51.426;5.444;2022-09-01T02:23:24;3.40;;;1.20;;
48613;SDS011;34408;51.426;5.444;2022-09-01T02:25:54;2.40;;;1.30;;
48613;SDS011;34408;51.426;5.444;2022-09-01T02:28:41;1.73;;;1.20;;
48613;SDS011;34408;51.426;5.444;2022-09-01T02:31:10;1.85;;;1.15;;
48613;SDS011;34408;51.426;5.444;2022-09-01T02:33:39;4.03;;;1.20;;
48613;SDS011;34408;51.426;5.444;2022-09-01T02:36:10;3.17;;;1.10;;
48613;SDS011;34408;51.426;5.444;2022-09-01T02:38:40;4.53;;;1.30;;
48613;SDS011;34408;51.426;5.444;2022-09-01T02:41:19;1.25;;;0.85;;
48613;SDS011;34408;51.426;5.444;2022-09-01T02:43:49;2.67;;;1.42;;
48613;SDS011;34408;51.426;5.444;2022-09-01T02:46:17;2.53;;;1.27;;
48613;SDS011;34408;51.426;5.444;2022-09-01T02:48:45;1.88;;;1.15;;
48613;SDS011;34408;51.426;5.444;2022-09-01T02:51:18;2.03;;;1.30;;
48613;SDS011;34408;51.426;5.444;2022-09-01T02:53:50;1.58;;;1.13;;
48613;SDS011;34408;51.426;5.444;2022-09-01T02:56:21;1.60;;;1.00;;
48613;SDS011;34408;51.426;5.444;2022-09-01T02:58:52;2.88;;;1.27;;
48613;SDS011;34408;51.426;5.444;2022-09-01T03:01:27;2.30;;;1.13;;
48613;SDS011;34408;51.426;5.444;2022-09-01T03:03:56;2.47;;;1.20;;
48613;SDS011;34408;51.426;5.444;2022-09-01T03:06:26;3.50;;;1.38;;
48613;SDS011;34408;51.426;5.444;2022-09-01T03:08:57;5.47;;;1.63;;
48613;SDS011;34408;51.426;5.444;2022-09-01T03:11:27;3.45;;;1.20;;
48613;SDS011;34408;51.426;5.444;2022-09-01T03:13:56;1.73;;;1.20;;
48613;SDS011;34408;51.426;5.444;2022-09-01T03:16:25;3.60;;;1.50;;
48613;SDS011;34408;51.426;5.444;2022-09-01T03:18:52;1.65;;;1.10;;
48613;SDS011;34408;51.426;5.444;2022-09-01T03:21:20;1.65;;;1.25;;
48613;SDS011;34408;51.426;5.444;2022-09-01T03:23:49;4.60;;;1.20;;
48613;SDS011;34408;51.426;5.444;2022-09-01T03:26:18;2.35;;;1.13;;
48613;SDS011;34408;51.426;5.444;2022-09-01T03:28:49;3.95;;;1.40;;
48613;SDS011;34408;51.426;5.444;2022-09-01T03:31:18;5.68;;;1.15;;
48613;SDS011;34408;51.426;5.444;2022-09-01T03:33:46;2.40;;;1.40;;
48613;SDS011;34408;51.426;5.444;2022-09-01T03:36:16;3.65;;;1.33;;
48613;SDS011;34408;51.426;5.444;2022-09-01T03:38:45;3.38;;;1.20;;
48613;SDS011;34408;51.426;5.444;2022-09-01T03:41:15;1.77;;;1.05;;
48613;SDS011;34408;51.426;5.444;2022-09-01T03:43:44;2.00;;;0.90;;
48613;SDS011;34408;51.426;5.444;2022-09-01T03:46:16;4.07;;;1.17;;
48613;SDS011;34408;51.426;5.444;2022-09-01T03:48:47;4.00;;;1.20;;
48613;SDS011;34408;51.426;5.444;2022-09-01T03:51:17;1.75;;;1.40;;
48613;SDS011;34408;51.426;5.444;2022-09-01T03:53:48;1.45;;;1.00;;
48613;SDS011;34408;51.426;5.444;2022-09-01T03:56:19;3.88;;;1.13;;
48613;SDS011;34408;51.426;5.444;2022-09-01T03:58:49;1.52;;;1.10;;
48613;SDS011;34408;51.426;5.444;2022-09-01T04:01:19;3.55;;;1.15;;
48613;SDS011;34408;51.426;5.444;2022-09-01T04:03:47;6.18;;;1.45;;
48613;SDS011;34408;51.426;5.444;2022-09-01T04:06:17;2.80;;;1.15;;
48613;SDS011;34408;51.426;5.444;2022-09-01T04:08:45;2.55;;;1.20;;
48613;SDS011;34408;51.426;5.444;2022-09-01T04:11:14;2.33;;;1.48;;
48613;SDS011;34408;51.426;5.444;2022-09-01T04:13:45;1.75;;;0.90;;
48613;SDS011;34408;51.426;5.444;2022-09-01T04:16:17;3.08;;;1.10;;
48613;SDS011;34408;51.426;5.444;2022-09-01T04:19:06;3.35;;;1.10;;
48613;SDS011;34408;51.426;5.444;2022-09-01T04:21:45;3.65;;;1.80;;
48613;SDS011;34408;51.426;5.444;2022-09-01T04:24:15;3.50;;;1.58;;
48613;SDS011;34408;51.426;5.444;2022-09-01T04:26:44;2.03;;;1.27;;
48613;SDS011;34408;51.426;5.444;2022-09-01T04:29:15;3.28;;;1.10;;
48613;SDS011;34408;51.426;5.444;2022-09-01T04:31:45;6.22;;;1.35;;
48613;SDS011;34408;51.426;5.444;2022-09-01T04:34:19;8.02;;;2.05;;
48613;SDS011;34408;51.426;5.444;2022-09-01T04:36:47;1.35;;;1.10;;
48613;SDS011;34408;51.426;5.444;2022-09-01T04:39:20;4.82;;;1.95;;
48613;SDS011;34408;51.426;5.444;2022-09-01T04:41:48;1.95;;;1.33;;
48613;SDS011;34408;51.426;5.444;2022-09-01T04:44:16;1.77;;;1.30;;
48613;SDS011;34408;51.426;5.444;2022-09-01T04:46:46;2.63;;;1.10;;
48613;SDS011;34408;51.426;5.444;2022-09-01T04:49:16;2.88;;;1.42;;
48613;SDS011;34408;51.426;5.444;2022-09-01T04:51:47;4.00;;;1.58;;
48613;SDS011;34408;51.426;5.444;2022-09-01T04:54:19;1.77;;;1.23;;
48613;SDS011;34408;51.426;5.444;2022-09-01T04:56:48;3.72;;;1.33;;
48613;SDS011;34408;51.426;5.444;2022-09-01T04:59:18;2.00;;;1.02;;
48613;SDS011;34408;51.426;5.444;2022-09-01T05:01:48;2.85;;;1.27;;
48613;SDS011;34408;51.426;5.444;2022-09-01T05:04:20;2.53;;;1.30;;
48613;SDS011;34408;51.426;5.444;2022-09-01T05:06:50;6.05;;;1.23;;
48613;SDS011;34408;51.426;5.444;2022-09-01T05:09:21;3.83;;;1.48;;
48613;SDS011;34408;51.426;5.444;2022-09-01T05:11:50;2.92;;;1.35;;
48613;SDS011;34408;51.426;5.444;2022-09-01T05:14:18;2.85;;;1.50;;
48613;SDS011;34408;51.426;5.444;2022-09-01T05:16:49;3.47;;;1.27;;
48613;SDS011;34408;51.426;5.444;2022-09-01T05:19:19;2.40;;;1.35;;
48613;SDS011;34408;51.426;5.444;2022-09-01T05:21:50;4.10;;;1.23;;
48613;SDS011;34408;51.426;5.444;2022-09-01T05:24:23;3.70;;;1.35;;
48613;SDS011;34408;51.426;5.444;2022-09-01T05:26:55;6.50;;;1.60;;
48613;SDS011;34408;51.426;5.444;2022-09-01T05:29:24;2.42;;;1.50;;
48613;SDS011;34408;51.426;5.444;2022-09-01T05:31:54;2.33;;;1.38;;
48613;SDS011;34408;51.426;5.444;2022-09-01T05:34:22;2.20;;;1.13;;
48613;SDS011;34408;51.426;5.444;2022-09-01T05:36:53;4.28;;;1.30;;
48613;SDS011;34408;51.426;5.444;2022-09-01T05:39:23;3.75;;;1.55;;
48613;SDS011;34408;51.426;5.444;2022-09-01T05:41:51;4.47;;;1.15;;
48613;SDS011;34408;51.426;5.444;2022-09-01T05:44:20;4.97;;;1.40;;
48613;SDS011;34408;51.426;5.444;2022-09-01T05:46:48;2.33;;;1.48;;
48613;SDS011;34408;51.426;5.444;2022-09-01T05:49:19;3.22;;;1.65;;
48613;SDS011;34408;51.426;5.444;2022-09-01T05:51:48;5.07;;;1.75;;
48613;SDS011;34408;51.426;5.444;2022-09-01T05:54:17;2.25;;;1.60;;
48613;SDS011;34408;51.426;5.444;2022-09-01T05:56:48;3.92;;;1.45;;
48613;SDS011;34408;51.426;5.444;2022-09-01T05:59:18;5.43;;;1.30;;
48613;SDS011;34408;51.426;5.444;2022-09-01T06:01:51;2.83;;;1.13;;
48613;SDS011;34408;51.426;5.444;2022-09-01T06:04:21;5.10;;;1.83;;
48613;SDS011;34408;51.426;5.444;2022-09-01T06:06:51;6.32;;;1.88;;
48613;SDS011;34408;51.426;5.444;2022-09-01T06:09:33;3.92;;;1.60;;
48613;SDS011;34408;51.426;5.444;2022-09-01T06:12:04;4.63;;;1.98;;
48613;SDS011;34408;51.426;5.444;2022-09-01T06:14:32;4.97;;;1.75;;
48613;SDS011;34408;51.426;5.444;2022-09-01T06:17:00;4.32;;;1.90;;
48613;SDS011;34408;51.426;5.444;2022-09-01T06:19:29;2.17;;;1.33;;
48613;SDS011;34408;51.426;5.444;2022-09-01T06:22:02;2.03;;;1.33;;
48613;SDS011;34408;51.426;5.444;2022-09-01T06:24:30;6.63;;;2.08;;
48613;SDS011;34408;51.426;5.444;2022-09-01T06:26:58;5.10;;;1.45;;
48613;SDS011;34408;51.426;5.444;2022-09-01T06:29:26;3.67;;;1.45;;
48613;SDS011;34408;51.426;5.444;2022-09-01T06:31:56;3.97;;;2.33;;
48613;SDS011;34408;51.426;5.444;2022-09-01T06:34:27;3.85;;;1.90;;
48613;SDS011;34408;51.426;5.444;2022-09-01T06:36:56;9.73;;;1.73;;
48613;SDS011;34408;51.426;5.444;2022-09-01T06:39:25;3.95;;;1.95;;
48613;SDS011;34408;51.426;5.444;2022-09-01T06:41:52;4.63;;;2.03;;
48613;SDS011;34408;51.426;5.444;2022-09-01T06:44:21;4.53;;;2.15;;
48613;SDS011;34408;51.426;5.444;2022-09-01T06:46:49;4.18;;;1.63;;
48613;SDS011;34408;51.426;5.444;2022-09-01T06:49:18;6.43;;;2.08;;
48613;SDS011;34408;51.426;5.444;2022-09-01T06:51:48;4.28;;;1.83;;
48613;SDS011;34408;51.426;5.444;2022-09-01T06:54:18;7.32;;;2.30;;
48613;SDS011;34408;51.426;5.444;2022-09-01T06:56:46;3.58;;;1.80;;
48613;SDS011;34408;51.426;5.444;2022-09-01T06:59:18;4.68;;;2.13;;
48613;SDS011;34408;51.426;5.444;2022-09-01T07:01:46;4.25;;;2.25;;
48613;SDS011;34408;51.426;5.444;2022-09-01T07:04:17;4.60;;;1.95;;
48613;SDS011;34408;51.426;5.444;2022-09-01T07:06:50;5.35;;;2.13;;
48613;SDS011;34408;51.426;5.444;2022-09-01T07:09:39;5.03;;;2.00;;
48613;SDS011;34408;51.426;5.444;2022-09-01T07:12:28;5.20;;;2.30;;
48613;SDS011;34408;51.426;5.444;2022-09-01T07:14:57;6.25;;;2.47;;
48613;SDS011;34408;51.426;5.444;2022-09-01T07:17:45;3.55;;;1.95;;
48613;SDS011;34408;51.426;5.444;2022-09-01T07:20:15;5.78;;;2.03;;
48613;SDS011;34408;51.426;5.444;2022-09-01T07:22:52;3.83;;;2.10;;
48613;SDS011;34408;51.426;5.444;2022-09-01T07:25:43;5.82;;;2.33;;
48613;SDS011;34408;51.426;5.444;2022-09-01T07:28:27;4.13;;;2.17;;
48613;SDS011;34408;51.426;5.444;2022-09-01T07:31:06;6.43;;;2.28;;
48613;SDS011;34408;51.426;5.444;2022-09-01T07:33:55;3.17;;;1.80;;
48613;SDS011;34408;51.426;5.444;2022-09-01T07:36:45;4.18;;;2.05;;
48613;SDS011;34408;51.426;5.444;2022-09-01T07:39:34;6.85;;;2.25;;
48613;SDS011;34408;51.426;5.444;2022-09-01T07:42:21;6.55;;;1.98;;
48613;SDS011;34408;51.426;5.444;2022-09-01T07:45:09;6.85;;;2.45;;
48613;SDS011;34408;51.426;5.444;2022-09-01T07:47:54;5.15;;;2.10;;
48613;SDS011;34408;51.426;5.444;2022-09-01T07:50:25;4.50;;;2.22;;
48613;SDS011;34408;51.426;5.444;2022-09-01T07:53:14;8.13;;;2.00;;
48613;SDS011;34408;51.426;5.444;2022-09-01T07:55:43;5.05;;;2.08;;
48613;SDS011;34408;51.426;5.444;2022-09-01T07:58:13;6.20;;;2.20;;
48613;SDS011;34408;51.426;5.444;2022-09-01T08:00:41;8.88;;;2.72;;
48613;SDS011;34408;51.426;5.444;2022-09-01T08:03:12;12.07;;;2.28;;
48613;SDS011;34408;51.426;5.444;2022-09-01T08:05:40;6.00;;;2.45;;
48613;SDS011;34408;51.426;5.444;2022-09-01T08:08:08;5.40;;;2.63;;
48613;SDS011;34408;51.426;5.444;2022-09-01T08:10:44;5.40;;;2.10;;
48613;SDS011;34408;51.426;5.444;2022-09-01T08:13:16;5.70;;;2.40;;
48613;SDS011;34408;51.426;5.444;2022-09-01T08:15:47;5.30;;;2.13;;
48613;SDS011;34408;51.426;5.444;2022-09-01T08:18:35;8.45;;;2.55;;
48613;SDS011;34408;51.426;5.444;2022-09-01T08:21:19;7.75;;;2.35;;
48613;SDS011;34408;51.426;5.444;2022-09-01T08:23:48;5.20;;;2.63;;
48613;SDS011;34408;51.426;5.444;2022-09-01T08:26:17;4.72;;;2.40;;
48613;SDS011;34408;51.426;5.444;2022-09-01T08:28:48;6.38;;;2.92;;
48613;SDS011;34408;51.426;5.444;2022-09-01T08:33:56;8.50;;;3.08;;
48613;SDS011;34408;51.426;5.444;2022-09-01T08:36:25;4.88;;;2.40;;
48613;SDS011;34408;51.426;5.444;2022-09-01T08:38:53;5.47;;;3.00;;
48613;SDS011;34408;51.426;5.444;2022-09-01T08:41:23;8.90;;;3.28;;
48613;SDS011;34408;51.426;5.444;2022-09-01T08:44:06;10.77;;;3.70;;
48613;SDS011;34408;51.426;5.444;2022-09-01T08:46:40;8.60;;;3.22;;
48613;SDS011;34408;51.426;5.444;2022-09-01T08:49:12;7.05;;;3.28;;
48613;SDS011;34408;51.426;5.444;2022-09-01T08:51:52;7.35;;;4.10;;
48613;SDS011;34408;51.426;5.444;2022-09-01T08:54:28;8.75;;;4.22;;
48613;SDS011;34408;51.426;5.444;2022-09-01T08:57:04;13.68;;;5.80;;
48613;SDS011;34408;51.426;5.444;2022-09-01T08:59:36;8.93;;;4.40;;
48613;SDS011;34408;51.426;5.444;2022-09-01T09:02:05;12.68;;;6.28;;
48613;SDS011;34408;51.426;5.444;2022-09-01T09:04:49;13.95;;;6.15;;
48613;SDS011;34408;51.426;5.444;2022-09-01T09:07:29;10.80;;;5.13;;
48613;SDS011;34408;51.426;5.444;2022-09-01T09:10:10;19.65;;;6.78;;
48613;SDS011;34408;51.426;5.444;2022-09-01T09:12:56;9.70;;;6.45;;
48613;SDS011;34408;51.426;5.444;2022-09-01T09:15:35;13.55;;;5.55;;
48613;SDS011;34408;51.426;5.444;2022-09-01T09:18:12;12.48;;;5.60;;
48613;SDS011;34408;51.426;5.444;2022-09-01T09:21:05;14.98;;;5.80;;
48613;SDS011;34408;51.426;5.444;2022-09-01T09:23:38;11.07;;;5.53;;
48613;SDS011;34408;51.426;5.444;2022-09-01T09:26:10;11.43;;;5.38;;
48613;SDS011;34408;51.426;5.444;2022-09-01T09:28:47;11.48;;;5.45;;
48613;SDS011;34408;51.426;5.444;2022-09-01T09:31:26;12.75;;;5.15;;
48613;SDS011;34408;51.426;5.444;2022-09-01T09:33:56;10.55;;;4.35;;
48613;SDS011;34408;51.426;5.444;2022-09-01T09:36:29;7.45;;;4.90;;
48613;SDS011;34408;51.426;5.444;2022-09-01T09:39:03;15.23;;;5.43;;
48613;SDS011;34408;51.426;5.444;2022-09-01T09:41:36;9.00;;;4.20;;
48613;SDS011;34408;51.426;5.444;2022-09-01T09:44:11;7.20;;;3.65;;
48613;SDS011;34408;51.426;5.444;2022-09-01T09:46:45;9.15;;;4.10;;
48613;SDS011;34408;51.426;5.444;2022-09-01T09:49:15;9.02;;;3.83;;
48613;SDS011;34408;51.426;5.444;2022-09-01T09:52:11;8.85;;;4.00;;
48613;SDS011;34408;51.426;5.444;2022-09-01T09:54:57;8.48;;;3.42;;
48613;SDS011;34408;51.426;5.444;2022-09-01T09:57:26;9.68;;;3.28;;
48613;SDS011;34408;51.426;5.444;2022-09-01T09:59:56;9.52;;;3.35;;
48613;SDS011;34408;51.426;5.444;2022-09-01T10:02:31;7.22;;;3.47;;
48613;SDS011;34408;51.426;5.444;2022-09-01T10:05:19;9.23;;;3.60;;
48613;SDS011;34408;51.426;5.444;2022-09-01T10:07:50;8.77;;;3.40;;
48613;SDS011;34408;51.426;5.444;2022-09-01T10:10:29;10.30;;;3.20;;
48613;SDS011;34408;51.426;5.444;2022-09-01T10:13:03;8.50;;;3.85;;
48613;SDS011;34408;51.426;5.444;2022-09-01T10:15:34;8.18;;;2.95;;
48613;SDS011;34408;51.426;5.444;2022-09-01T10:18:05;7.43;;;3.50;;
48613;SDS011;34408;51.426;5.444;2022-09-01T10:20:48;5.47;;;2.85;;
48613;SDS011;34408;51.426;5.444;2022-09-01T10:23:20;6.28;;;2.75;;
48613;SDS011;34408;51.426;5.444;2022-09-01T10:25:57;4.97;;;2.60;;
48613;SDS011;34408;51.426;5.444;2022-09-01T10:28:31;6.95;;;3.80;;
48613;SDS011;34408;51.426;5.444;2022-09-01T10:31:02;4.18;;;2.38;;
48613;SDS011;34408;51.426;5.444;2022-09-01T10:33:35;4.68;;;2.53;;
48613;SDS011;34408;51.426;5.444;2022-09-01T10:36:03;8.07;;;2.85;;
48613;SDS011;34408;51.426;5.444;2022-09-01T10:38:33;10.20;;;3.00;;
48613;SDS011;34408;51.426;5.444;2022-09-01T10:41:01;5.22;;;2.45;;
48613;SDS011;34408;51.426;5.444;2022-09-01T10:43:41;6.45;;;3.05;;
48613;SDS011;34408;51.426;5.444;2022-09-01T10:55:28;7.22;;;3.22;;
48613;SDS011;34408;51.426;5.444;2022-09-01T11:02:03;5.25;;;2.63;;
48613;SDS011;34408;51.426;5.444;2022-09-01T11:05:15;6.45;;;3.15;;
48613;SDS011;34408;51.426;5.444;2022-09-01T11:07:44;4.97;;;2.47;;
48613;SDS011;34408;51.426;5.444;2022-09-01T11:10:35;6.32;;;3.10;;
48613;SDS011;34408;51.426;5.444;2022-09-01T11:19:31;5.32;;;2.20;;
48613;SDS011;34408;51.426;5.444;2022-09-01T11:25:05;6.93;;;2.50;;
48613;SDS011;34408;51.426;5.444;2022-09-01T11:30:35;6.28;;;2.28;;
48613;SDS011;34408;51.426;5.444;2022-09-01T11:33:25;3.67;;;2.30;;
48613;SDS011;34408;51.426;5.444;2022-09-01T11:36:12;5.32;;;2.22;;
48613;SDS011;34408;51.426;5.444;2022-09-01T11:38:46;7.13;;;2.30;;
48613;SDS011;34408;51.426;5.444;2022-09-01T11:41:20;3.67;;;2.20;;
48613;SDS011;34408;51.426;5.444;2022-09-01T11:43:55;4.55;;;2.45;;
48613;SDS011;34408;51.426;5.444;2022-09-01T11:46:25;5.63;;;2.00;;
48613;SDS011;34408;51.426;5.444;2022-09-01T11:48:55;4.90;;;1.80;;
48613;SDS011;34408;51.426;5.444;2022-09-01T11:51:24;3.75;;;2.05;;
48613;SDS011;34408;51.426;5.444;2022-09-01T11:53:52;3.63;;;1.90;;
48613;SDS011;34408;51.426;5.444;2022-09-01T11:56:27;3.85;;;1.90;;
48613;SDS011;34408;51.426;5.444;2022-09-01T11:58:56;4.93;;;2.13;;
48613;SDS011;34408;51.426;5.444;2022-09-01T12:01:30;2.92;;;1.83;;
48613;SDS011;34408;51.426;5.444;2022-09-01T12:06:51;4.47;;;1.92;;
48613;SDS011;34408;51.426;5.444;2022-09-01T12:09:20;5.47;;;2.22;;
48613;SDS011;34408;51.426;5.444;2022-09-01T12:11:48;4.95;;;1.60;;
48613;SDS011;34408;51.426;5.444;2022-09-01T12:14:20;4.43;;;1.42;;
48613;SDS011;34408;51.426;5.444;2022-09-01T12:16:55;4.30;;;1.52;;
48613;SDS011;34408;51.426;5.444;2022-09-01T12:19:26;10.32;;;2.08;;
48613;SDS011;34408;51.426;5.444;2022-09-01T12:21:58;2.08;;;1.23;;
48613;SDS011;34408;51.426;5.444;2022-09-01T12:24:29;4.65;;;1.83;;
48613;SDS011;34408;51.426;5.444;2022-09-01T12:27:00;3.20;;;1.20;;
48613;SDS011;34408;51.426;5.444;2022-09-01T12:29:30;2.15;;;1.20;;
48613;SDS011;34408;51.426;5.444;2022-09-01T12:31:59;4.35;;;1.20;;
48613;SDS011;34408;51.426;5.444;2022-09-01T12:34:35;4.50;;;1.60;;
48613;SDS011;34408;51.426;5.444;2022-09-01T12:37:18;4.20;;;1.30;;
48613;SDS011;34408;51.426;5.444;2022-09-01T12:39:48;3.53;;;1.48;;
48613;SDS011;34408;51.426;5.444;2022-09-01T12:42:22;2.10;;;1.38;;
48613;SDS011;34408;51.426;5.444;2022-09-01T12:44:54;7.05;;;1.58;;
48613;SDS011;34408;51.426;5.444;2022-09-01T12:47:44;2.97;;;1.30;;
48613;SDS011;34408;51.426;5.444;2022-09-01T12:50:33;5.18;;;1.88;;
48613;SDS011;34408;51.426;5.444;2022-09-01T12:53:14;3.03;;;1.60;;
48613;SDS011;34408;51.426;5.444;2022-09-01T12:55:53;2.25;;;1.30;;
48613;SDS011;34408;51.426;5.444;2022-09-01T12:58:26;2.03;;;1.13;;
48613;SDS011;34408;51.426;5.444;2022-09-01T13:00:57;2.17;;;1.45;;
48613;SDS011;34408;51.426;5.444;2022-09-01T13:03:30;2.88;;;1.08;;
48613;SDS011;34408;51.426;5.444;2022-09-01T13:06:00;2.22;;;1.15;;
48613;SDS011;34408;51.426;5.444;2022-09-01T13:08:30;3.55;;;1.20;;
48613;SDS011;34408;51.426;5.444;2022-09-01T13:11:01;2.90;;;1.40;;
48613;SDS011;34408;51.426;5.444;2022-09-01T13:13:31;3.58;;;1.08;;
48613;SDS011;34408;51.426;5.444;2022-09-01T13:16:02;5.80;;;1.10;;
48613;SDS011;34408;51.426;5.444;2022-09-01T13:18:33;2.28;;;1.25;;
48613;SDS011;34408;51.426;5.444;2022-09-01T13:21:21;4.50;;;1.52;;
48613;SDS011;34408;51.426;5.444;2022-09-01T13:23:49;2.42;;;1.23;;
48613;SDS011;34408;51.426;5.444;2022-09-01T13:26:17;1.77;;;1.10;;
48613;SDS011;34408;51.426;5.444;2022-09-01T13:28:45;2.78;;;1.40;;
48613;SDS011;34408;51.426;5.444;2022-09-01T13:31:14;2.45;;;1.23;;
48613;SDS011;34408;51.426;5.444;2022-09-01T13:33:59;2.10;;;1.30;;
48613;SDS011;34408;51.426;5.444;2022-09-01T13:36:46;3.03;;;1.15;;
48613;SDS011;34408;51.426;5.444;2022-09-01T13:39:18;2.95;;;1.70;;
48613;SDS011;34408;51.426;5.444;2022-09-01T13:41:46;4.63;;;1.63;;
48613;SDS011;34408;51.426;5.444;2022-09-01T13:44:14;4.30;;;1.80;;
48613;SDS011;34408;51.426;5.444;2022-09-01T13:46:45;5.05;;;2.08;;
48613;SDS011;34408;51.426;5.444;2022-09-01T13:49:33;6.60;;;2.00;;
48613;SDS011;34408;51.426;5.444;2022-09-01T13:52:20;3.55;;;1.83;;
48613;SDS011;34408;51.426;5.444;2022-09-01T13:54:48;6.57;;;2.05;;
48613;SDS011;34408;51.426;5.444;2022-09-01T13:57:16;6.68;;;1.98;;
48613;SDS011;34408;51.426;5.444;2022-09-01T13:59:44;5.25;;;1.90;;
48613;SDS011;34408;51.426;5.444;2022-09-01T14:02:13;4.13;;;2.20;;
48613;SDS011;34408;51.426;5.444;2022-09-01T14:04:41;5.20;;;2.28;;
48613;SDS011;34408;51.426;5.444;2022-09-01T14:07:09;4.70;;;2.40;;
48613;SDS011;34408;51.426;5.444;2022-09-01T14:09:37;5.72;;;2.75;;
48613;SDS011;34408;51.426;5.444;2022-09-01T14:12:05;7.50;;;3.33;;
48613;SDS011;34408;51.426;5.444;2022-09-01T14:14:33;7.80;;;4.10;;
48613;SDS011;34408;51.426;5.444;2022-09-01T14:17:22;6.28;;;3.22;;
48613;SDS011;34408;51.426;5.444;2022-09-01T14:19:49;7.45;;;3.60;;
48613;SDS011;34408;51.426;5.444;2022-09-01T14:22:17;5.60;;;3.08;;
48613;SDS011;34408;51.426;5.444;2022-09-01T14:24:45;5.35;;;3.40;;
48613;SDS011;34408;51.426;5.444;2022-09-01T14:27:13;10.07;;;3.47;;
48613;SDS011;34408;51.426;5.444;2022-09-01T14:29:41;8.60;;;3.20;;
48613;SDS011;34408;51.426;5.444;2022-09-01T14:32:07;5.55;;;2.92;;
48613;SDS011;34408;51.426;5.444;2022-09-01T14:34:36;6.38;;;2.88;;
48613;SDS011;34408;51.426;5.444;2022-09-01T14:37:04;3.67;;;2.45;;
48613;SDS011;34408;51.426;5.444;2022-09-01T14:39:32;5.78;;;2.90;;
48613;SDS011;34408;51.426;5.444;2022-09-01T14:42:00;8.18;;;2.95;;
48613;SDS011;34408;51.426;5.444;2022-09-01T14:44:34;4.95;;;2.63;;
48613;SDS011;34408;51.426;5.444;2022-09-01T14:47:03;5.75;;;2.75;;
48613;SDS011;34408;51.426;5.444;2022-09-01T14:49:38;5.90;;;2.90;;
48613;SDS011;34408;51.426;5.444;2022-09-01T14:52:06;4.75;;;2.30;;
48613;SDS011;34408;51.426;5.444;2022-09-01T14:54:37;6.13;;;2.85;;
48613;SDS011;34408;51.426;5.444;2022-09-01T14:57:07;3.65;;;2.20;;
48613;SDS011;34408;51.426;5.444;2022-09-01T14:59:55;4.80;;;2.45;;
48613;SDS011;34408;51.426;5.444;2022-09-01T15:02:23;4.45;;;2.55;;
48613;SDS011;34408;51.426;5.444;2022-09-01T15:04:52;6.68;;;3.00;;
48613;SDS011;34408;51.426;5.444;2022-09-01T15:07:20;8.32;;;2.97;;
48613;SDS011;34408;51.426;5.444;2022-09-01T15:09:48;6.88;;;2.67;;
48613;SDS011;34408;51.426;5.444;2022-09-01T15:12:15;6.82;;;2.92;;
48613;SDS011;34408;51.426;5.444;2022-09-01T15:14:44;6.72;;;3.00;;
48613;SDS011;34408;51.426;5.444;2022-09-01T15:17:12;7.03;;;3.08;;
48613;SDS011;34408;51.426;5.444;2022-09-01T15:19:40;4.80;;;2.63;;
48613;SDS011;34408;51.426;5.444;2022-09-01T15:22:09;8.57;;;3.38;;
48613;SDS011;34408;51.426;5.444;2022-09-01T15:24:39;7.13;;;3.03;;
48613;SDS011;34408;51.426;5.444;2022-09-01T15:27:07;9.45;;;3.92;;
48613;SDS011;34408;51.426;5.444;2022-09-01T15:29:36;9.80;;;3.47;;
48613;SDS011;34408;51.426;5.444;2022-09-01T15:32:11;7.25;;;3.15;;
48613;SDS011;34408;51.426;5.444;2022-09-01T15:34:53;6.65;;;2.72;;
48613;SDS011;34408;51.426;5.444;2022-09-01T15:37:22;10.63;;;2.63;;
48613;SDS011;34408;51.426;5.444;2022-09-01T15:39:50;7.00;;;3.10;;
48613;SDS011;34408;51.426;5.444;2022-09-01T15:42:18;5.30;;;2.58;;
48613;SDS011;34408;51.426;5.444;2022-09-01T15:44:47;9.07;;;2.88;;
48613;SDS011;34408;51.426;5.444;2022-09-01T15:47:14;6.35;;;2.72;;
48613;SDS011;34408;51.426;5.444;2022-09-01T15:49:42;8.65;;;3.35;;
48613;SDS011;34408;51.426;5.444;2022-09-01T15:52:10;8.50;;;3.58;;
48613;SDS011;34408;51.426;5.444;2022-09-01T15:54:39;7.38;;;3.25;;